sensor_id;sensor_type;location;lat;lon;timestamp;pressure;altitude;pressure_sealevel;temperature;humidity
67434;BME280;54305;47.950;6.572;2022-10-31T00:01:41;94784.03;;;13.00;77.00
67434;BME280;54305;47.950;6.572;2022-10-31T00:04:07;94778.81;;;13.00;77.80
67434;BME280;54305;47.950;6.572;2022-10-31T00:06:32;94782.41;;;12.99;77.44
67434;BME280;54305;47.950;6.572;2022-10-31T00:08:59;94781.06;;;12.95;77.75
67434;BME280;54305;47.950;6.572;2022-10-31T00:11:24;94779.75;;;12.91;77.64
67434;BME280;54305;47.950;6.572;2022-10-31T00:13:50;94786.31;;;12.95;77.69
67434;BME280;54305;47.950;6.572;2022-10-31T00:16:16;94783.38;;;13.06;77.23
67434;BME280;54305;47.950;6.572;2022-10-31T00:18:41;94782.38;;;13.15;76.06
67434;BME280;54305;47.950;6.572;2022-10-31T00:21:07;94788.41;;;13.31;75.86
67434;BME280;54305;47.950;6.572;2022-10-31T00:23:32;94779.03;;;13.53;74.01
67434;BME280;54305;47.950;6.572;2022-10-31T00:26:01;94777.72;;;13.57;74.46
67434;BME280;54305;47.950;6.572;2022-10-31T00:28:26;94777.78;;;13.41;75.68
67434;BME280;54305;47.950;6.572;2022-10-31T00:30:52;94780.03;;;13.44;75.49
67434;BME280;54305;47.950;6.572;2022-10-31T00:33:17;94779.88;;;13.45;75.47
67434;BME280;54305;47.950;6.572;2022-10-31T00:35:42;94778.41;;;13.51;75.22
67434;BME280;54305;47.950;6.572;2022-10-31T00:38:08;94774.97;;;13.42;75.63
67434;BME280;54305;47.950;6.572;2022-10-31T00:40:33;94776.41;;;13.61;74.05
67434;BME280;54305;47.950;6.572;2022-10-31T00:42:58;94772.44;;;13.73;74.66
67434;BME280;54305;47.950;6.572;2022-10-31T00:45:24;94774.06;;;13.74;73.73
67434;BME280;54305;47.950;6.572;2022-10-31T00:47:49;94780.66;;;13.62;74.38
67434;BME280;54305;47.950;6.572;2022-10-31T00:50:15;94770.19;;;13.62;73.82
67434;BME280;54305;47.950;6.572;2022-10-31T00:52:40;94772.13;;;13.60;74.94
67434;BME280;54305;47.950;6.572;2022-10-31T00:55:05;94773.78;;;13.61;74.01
67434;BME280;54305;47.950;6.572;2022-10-31T00:57:31;94771.81;;;13.63;74.28
67434;BME280;54305;47.950;6.572;2022-10-31T00:59:56;94773.94;;;13.67;74.86
67434;BME280;54305;47.950;6.572;2022-10-31T01:02:21;94766.25;;;13.66;74.93
67434;BME280;54305;47.950;6.572;2022-10-31T01:04:47;94773.28;;;13.65;74.84
67434;BME280;54305;47.950;6.572;2022-10-31T01:07:12;94769.19;;;13.63;74.56
67434;BME280;54305;47.950;6.572;2022-10-31T01:09:38;94767.56;;;13.70;74.42
67434;BME280;54305;47.950;6.572;2022-10-31T01:12:04;94768.50;;;13.69;74.61
67434;BME280;54305;47.950;6.572;2022-10-31T01:14:31;94766.25;;;13.66;74.31
67434;BME280;54305;47.950;6.572;2022-10-31T01:16:57;94765.91;;;13.69;74.61
67434;BME280;54305;47.950;6.572;2022-10-31T01:19:22;94768.38;;;13.62;74.96
67434;BME280;54305;47.950;6.572;2022-10-31T01:21:47;94766.56;;;13.63;74.69
67434;BME280;54305;47.950;6.572;2022-10-31T01:24:12;94756.13;;;13.63;74.99
67434;BME280;54305;47.950;6.572;2022-10-31T01:26:38;94755.44;;;13.69;74.35
67434;BME280;54305;47.950;6.572;2022-10-31T01:29:04;94753.72;;;13.84;73.64
67434;BME280;54305;47.950;6.572;2022-10-31T01:31:31;94746.41;;;13.79;73.39
67434;BME280;54305;47.950;6.572;2022-10-31T01:33:57;94747.13;;;13.96;73.63
67434;BME280;54305;47.950;6.572;2022-10-31T01:36:24;94752.41;;;13.88;73.72
67434;BME280;54305;47.950;6.572;2022-10-31T01:38:51;94740.00;;;13.82;73.83
67434;BME280;54305;47.950;6.572;2022-10-31T01:41:18;94740.56;;;13.61;75.51
67434;BME280;54305;47.950;6.572;2022-10-31T01:43:59;94737.34;;;13.51;76.02
67434;BME280;54305;47.950;6.572;2022-10-31T01:46:27;94730.94;;;13.54;75.24
67434;BME280;54305;47.950;6.572;2022-10-31T01:48:54;94730.25;;;13.60;75.00
67434;BME280;54305;47.950;6.572;2022-10-31T01:51:20;94740.03;;;13.74;74.35
67434;BME280;54305;47.950;6.572;2022-10-31T01:53:48;94731.16;;;13.83;74.73
67434;BME280;54305;47.950;6.572;2022-10-31T01:56:15;94732.69;;;13.77;74.87
67434;BME280;54305;47.950;6.572;2022-10-31T01:58:41;94723.69;;;13.72;76.03
67434;BME280;54305;47.950;6.572;2022-10-31T02:01:07;94737.47;;;13.58;76.36
67434;BME280;54305;47.950;6.572;2022-10-31T02:03:32;94734.84;;;13.66;75.16
67434;BME280;54305;47.950;6.572;2022-10-31T02:05:58;94726.28;;;13.80;74.34
67434;BME280;54305;47.950;6.572;2022-10-31T02:10:49;94725.22;;;13.89;74.27
67434;BME280;54305;47.950;6.572;2022-10-31T02:13:14;94724.91;;;13.92;73.62
67434;BME280;54305;47.950;6.572;2022-10-31T02:15:40;94722.91;;;13.94;74.59
67434;BME280;54305;47.950;6.572;2022-10-31T02:18:07;94715.72;;;13.96;74.80
67434;BME280;54305;47.950;6.572;2022-10-31T02:23:30;94720.06;;;13.73;74.76
67434;BME280;54305;47.950;6.572;2022-10-31T02:28:52;94723.00;;;13.78;74.42
67434;BME280;54305;47.950;6.572;2022-10-31T02:31:27;94718.84;;;13.61;75.28
67434;BME280;54305;47.950;6.572;2022-10-31T02:36:59;94708.84;;;13.64;74.60
67434;BME280;54305;47.950;6.572;2022-10-31T02:39:29;94708.69;;;13.66;74.91
67434;BME280;54305;47.950;6.572;2022-10-31T02:42:03;94708.19;;;13.62;75.13
67434;BME280;54305;47.950;6.572;2022-10-31T02:44:38;94706.06;;;13.58;75.01
67434;BME280;54305;47.950;6.572;2022-10-31T02:47:14;94708.31;;;13.69;74.82
67434;BME280;54305;47.950;6.572;2022-10-31T02:52:21;94704.09;;;13.60;74.55
67434;BME280;54305;47.950;6.572;2022-10-31T02:54:48;94706.78;;;13.52;75.34
67434;BME280;54305;47.950;6.572;2022-10-31T02:57:14;94696.31;;;13.52;74.30
67434;BME280;54305;47.950;6.572;2022-10-31T02:59:44;94703.16;;;13.53;73.76
67434;BME280;54305;47.950;6.572;2022-10-31T03:07:23;94704.44;;;13.57;74.47
67434;BME280;54305;47.950;6.572;2022-10-31T03:12:22;94700.25;;;13.40;75.07
67434;BME280;54305;47.950;6.572;2022-10-31T03:14:53;94701.94;;;13.33;75.35
67434;BME280;54305;47.950;6.572;2022-10-31T03:17:26;94699.94;;;13.35;75.19
67434;BME280;54305;47.950;6.572;2022-10-31T03:19:55;94696.00;;;13.39;74.75
67434;BME280;54305;47.950;6.572;2022-10-31T03:22:29;94702.88;;;13.40;74.69
67434;BME280;54305;47.950;6.572;2022-10-31T03:24:58;94695.34;;;13.45;74.10
67434;BME280;54305;47.950;6.572;2022-10-31T03:27:27;94695.34;;;13.45;74.79
67434;BME280;54305;47.950;6.572;2022-10-31T03:29:56;94701.56;;;13.44;74.45
67434;BME280;54305;47.950;6.572;2022-10-31T03:32:32;94695.69;;;13.42;74.31
67434;BME280;54305;47.950;6.572;2022-10-31T03:35:00;94699.63;;;13.38;74.63
67434;BME280;54305;47.950;6.572;2022-10-31T03:37:27;94696.69;;;13.41;74.38
67434;BME280;54305;47.950;6.572;2022-10-31T03:39:55;94699.94;;;13.35;74.42
67434;BME280;54305;47.950;6.572;2022-10-31T03:42:25;94707.16;;;13.33;74.79
67434;BME280;54305;47.950;6.572;2022-10-31T03:45:03;94695.41;;;13.29;74.61
67434;BME280;54305;47.950;6.572;2022-10-31T03:47:30;94703.25;;;13.21;74.83
67434;BME280;54305;47.950;6.572;2022-10-31T03:49:56;94698.66;;;13.31;74.71
67434;BME280;54305;47.950;6.572;2022-10-31T03:54:54;94687.09;;;13.17;74.86
67434;BME280;54305;47.950;6.572;2022-10-31T03:57:24;94688.75;;;13.10;75.38
67434;BME280;54305;47.950;6.572;2022-10-31T03:59:52;94683.69;;;13.09;75.42
67434;BME280;54305;47.950;6.572;2022-10-31T04:02:22;94687.91;;;13.18;75.38
67434;BME280;54305;47.950;6.572;2022-10-31T04:04:49;94687.78;;;13.11;75.92
67434;BME280;54305;47.950;6.572;2022-10-31T04:07:15;94688.28;;;12.99;76.11
67434;BME280;54305;47.950;6.572;2022-10-31T04:09:43;94686.84;;;12.96;75.96
67434;BME280;54305;47.950;6.572;2022-10-31T04:12:13;94682.88;;;12.92;76.51
67434;BME280;54305;47.950;6.572;2022-10-31T04:14:43;94688.28;;;12.99;76.86
67434;BME280;54305;47.950;6.572;2022-10-31T04:17:11;94690.25;;;12.97;76.69
67434;BME280;54305;47.950;6.572;2022-10-31T04:19:38;94687.97;;;12.86;76.75
67434;BME280;54305;47.950;6.572;2022-10-31T04:22:03;94699.91;;;12.80;77.15
67434;BME280;54305;47.950;6.572;2022-10-31T04:24:29;94696.78;;;12.85;76.90
67434;BME280;54305;47.950;6.572;2022-10-31T04:26:54;94695.97;;;12.84;77.09
67434;BME280;54305;47.950;6.572;2022-10-31T04:29:19;94692.50;;;12.92;75.94
67434;BME280;54305;47.950;6.572;2022-10-31T04:31:44;94693.81;;;12.96;76.91
67434;BME280;54305;47.950;6.572;2022-10-31T04:34:10;94698.75;;;12.83;77.43
67434;BME280;54305;47.950;6.572;2022-10-31T04:36:37;94692.72;;;12.82;77.66
67434;BME280;54305;47.950;6.572;2022-10-31T04:39:03;94688.31;;;12.75;77.36
67434;BME280;54305;47.950;6.572;2022-10-31T04:41:28;94690.75;;;12.68;77.78
67434;BME280;54305;47.950;6.572;2022-10-31T04:43:53;94687.31;;;12.76;77.85
67434;BME280;54305;47.950;6.572;2022-10-31T04:46:19;94679.47;;;12.84;76.73
67434;BME280;54305;47.950;6.572;2022-10-31T04:48:44;94679.47;;;12.84;77.02
67434;BME280;54305;47.950;6.572;2022-10-31T04:51:09;94683.06;;;12.83;77.27
67434;BME280;54305;47.950;6.572;2022-10-31T04:53:34;94684.88;;;12.74;77.40
67434;BME280;54305;47.950;6.572;2022-10-31T04:56:00;94680.16;;;12.62;77.66
67434;BME280;54305;47.950;6.572;2022-10-31T04:58:26;94686.00;;;12.72;77.18
67434;BME280;54305;47.950;6.572;2022-10-31T05:00:52;94686.84;;;12.72;77.64
67434;BME280;54305;47.950;6.572;2022-10-31T05:03:18;94674.25;;;12.84;76.56
67434;BME280;54305;47.950;6.572;2022-10-31T05:05:43;94679.63;;;12.82;77.65
67434;BME280;54305;47.950;6.572;2022-10-31T05:08:09;94672.28;;;12.78;77.32
67434;BME280;54305;47.950;6.572;2022-10-31T05:10:34;94668.38;;;12.74;76.99
67434;BME280;54305;47.950;6.572;2022-10-31T05:13:00;94670.16;;;12.73;77.64
67434;BME280;54305;47.950;6.572;2022-10-31T05:15:26;94669.19;;;12.74;77.31
67434;BME280;54305;47.950;6.572;2022-10-31T05:17:51;94663.16;;;12.74;77.14
67434;BME280;54305;47.950;6.572;2022-10-31T05:20:17;94669.03;;;12.68;78.01
67434;BME280;54305;47.950;6.572;2022-10-31T05:22:47;94672.00;;;12.65;78.42
67434;BME280;54305;47.950;6.572;2022-10-31T05:25:13;94664.50;;;12.54;78.07
67434;BME280;54305;47.950;6.572;2022-10-31T05:27:42;94667.13;;;12.54;78.09
67434;BME280;54305;47.950;6.572;2022-10-31T05:30:11;94666.13;;;12.55;78.65
67434;BME280;54305;47.950;6.572;2022-10-31T05:32:40;94663.81;;;12.52;78.12
67434;BME280;54305;47.950;6.572;2022-10-31T05:35:06;94661.88;;;12.46;78.44
67434;BME280;54305;47.950;6.572;2022-10-31T05:37:33;94658.59;;;12.44;78.22
67434;BME280;54305;47.950;6.572;2022-10-31T05:39:58;94655.34;;;12.34;78.38
67434;BME280;54305;47.950;6.572;2022-10-31T05:42:23;94658.94;;;12.33;78.23
67434;BME280;54305;47.950;6.572;2022-10-31T05:44:49;94660.25;;;12.29;78.96
67434;BME280;54305;47.950;6.572;2022-10-31T05:47:14;94657.00;;;12.35;77.91
67434;BME280;54305;47.950;6.572;2022-10-31T05:49:42;94659.59;;;12.27;77.96
67434;BME280;54305;47.950;6.572;2022-10-31T05:52:07;94657.97;;;12.26;78.68
67434;BME280;54305;47.950;6.572;2022-10-31T05:54:32;94654.06;;;12.30;78.51
67434;BME280;54305;47.950;6.572;2022-10-31T05:56:57;94654.84;;;12.46;77.32
67434;BME280;54305;47.950;6.572;2022-10-31T05:59:23;94662.19;;;12.43;78.05
67434;BME280;54305;47.950;6.572;2022-10-31T06:01:48;94663.81;;;12.52;77.18
67434;BME280;54305;47.950;6.572;2022-10-31T06:04:13;94660.22;;;12.53;77.49
67434;BME280;54305;47.950;6.572;2022-10-31T06:06:39;94652.56;;;12.51;76.84
67434;BME280;54305;47.950;6.572;2022-10-31T06:09:04;94651.75;;;12.51;77.35
67434;BME280;54305;47.950;6.572;2022-10-31T06:11:29;94653.84;;;12.55;76.61
67434;BME280;54305;47.950;6.572;2022-10-31T06:13:54;94649.78;;;12.53;77.25
67434;BME280;54305;47.950;6.572;2022-10-31T06:16:20;94645.38;;;12.53;77.09
67434;BME280;54305;47.950;6.572;2022-10-31T06:18:45;94643.91;;;12.59;76.90
67434;BME280;54305;47.950;6.572;2022-10-31T06:21:10;94640.00;;;12.55;76.45
67434;BME280;54305;47.950;6.572;2022-10-31T06:23:36;94637.03;;;12.58;76.15
67434;BME280;54305;47.950;6.572;2022-10-31T06:26:01;94642.59;;;12.63;76.55
67434;BME280;54305;47.950;6.572;2022-10-31T06:28:26;94636.03;;;12.67;75.94
67434;BME280;54305;47.950;6.572;2022-10-31T06:30:52;94637.66;;;12.68;75.71
67434;BME280;54305;47.950;6.572;2022-10-31T06:33:20;94641.09;;;12.76;75.92
67434;BME280;54305;47.950;6.572;2022-10-31T06:35:46;94640.22;;;12.92;75.10
67434;BME280;54305;47.950;6.572;2022-10-31T06:38:11;94652.34;;;12.93;75.27
67434;BME280;54305;47.950;6.572;2022-10-31T06:40:37;94647.91;;;12.93;75.28
67434;BME280;54305;47.950;6.572;2022-10-31T06:43:02;94646.13;;;13.02;75.38
67434;BME280;54305;47.950;6.572;2022-10-31T06:45:27;94645.94;;;13.11;74.69
67434;BME280;54305;47.950;6.572;2022-10-31T06:47:53;94633.03;;;13.10;74.55
67434;BME280;54305;47.950;6.572;2022-10-31T06:50:19;94649.69;;;13.17;74.43
67434;BME280;54305;47.950;6.572;2022-10-31T06:52:54;94640.50;;;13.21;74.41
67434;BME280;54305;47.950;6.572;2022-10-31T06:55:20;94647.72;;;13.19;74.91
67434;BME280;54305;47.950;6.572;2022-10-31T06:57:51;94650.00;;;13.14;75.12
67434;BME280;54305;47.950;6.572;2022-10-31T07:00:16;94643.00;;;13.14;75.40
67434;BME280;54305;47.950;6.572;2022-10-31T07:02:42;94640.22;;;13.46;71.77
67434;BME280;54305;47.950;6.572;2022-10-31T07:05:07;94648.47;;;13.66;70.95
67434;BME280;54305;47.950;6.572;2022-10-31T07:07:32;94656.66;;;13.63;72.01
67434;BME280;54305;47.950;6.572;2022-10-31T07:09:57;94655.66;;;13.64;72.17
67434;BME280;54305;47.950;6.572;2022-10-31T07:12:23;94652.72;;;13.67;71.93
67434;BME280;54305;47.950;6.572;2022-10-31T07:14:48;94655.63;;;13.72;71.58
67434;BME280;54305;47.950;6.572;2022-10-31T07:17:16;94655.97;;;13.69;72.61
67434;BME280;54305;47.950;6.572;2022-10-31T07:19:41;94653.63;;;13.82;70.99
67434;BME280;54305;47.950;6.572;2022-10-31T07:22:06;94655.66;;;13.94;71.10
67434;BME280;54305;47.950;6.572;2022-10-31T07:24:31;94658.44;;;13.93;72.25
67434;BME280;54305;47.950;6.572;2022-10-31T07:26:57;94657.28;;;13.95;71.13
67434;BME280;54305;47.950;6.572;2022-10-31T07:29:22;94658.59;;;13.91;72.38
67434;BME280;54305;47.950;6.572;2022-10-31T07:31:47;94649.13;;;14.13;70.92
67434;BME280;54305;47.950;6.572;2022-10-31T07:34:13;94655.03;;;14.23;72.37
67434;BME280;54305;47.950;6.572;2022-10-31T07:36:38;94657.28;;;14.26;70.68
67434;BME280;54305;47.950;6.572;2022-10-31T07:39:04;94656.28;;;14.27;71.13
67434;BME280;54305;47.950;6.572;2022-10-31T07:41:29;94655.94;;;14.30;71.18
67434;BME280;54305;47.950;6.572;2022-10-31T07:43:55;94652.16;;;14.47;68.03
67434;BME280;54305;47.950;6.572;2022-10-31T07:46:21;94657.41;;;14.47;71.64
67434;BME280;54305;47.950;6.572;2022-10-31T07:48:46;94659.06;;;14.48;69.33
67434;BME280;54305;47.950;6.572;2022-10-31T07:51:11;94667.22;;;14.53;73.00
67434;BME280;54305;47.950;6.572;2022-10-31T07:53:37;94663.72;;;14.60;72.17
67434;BME280;54305;47.950;6.572;2022-10-31T07:56:02;94658.91;;;14.64;70.79
67434;BME280;54305;47.950;6.572;2022-10-31T07:58:27;94654.56;;;14.71;71.37
67434;BME280;54305;47.950;6.572;2022-10-31T08:00:53;94665.66;;;14.81;72.50
67434;BME280;54305;47.950;6.572;2022-10-31T08:03:18;94662.03;;;14.82;71.97
67434;BME280;54305;47.950;6.572;2022-10-31T08:05:44;94659.03;;;14.85;72.13
67434;BME280;54305;47.950;6.572;2022-10-31T08:08:11;94655.34;;;14.94;69.66
67434;BME280;54305;47.950;6.572;2022-10-31T08:10:36;94654.63;;;15.00;71.32
67434;BME280;54305;47.950;6.572;2022-10-31T08:15:27;94650.00;;;15.16;71.50
67434;BME280;54305;47.950;6.572;2022-10-31T08:17:53;94650.50;;;15.20;70.33
67434;BME280;54305;47.950;6.572;2022-10-31T08:20:18;94655.00;;;15.26;68.14
67434;BME280;54305;47.950;6.572;2022-10-31T08:22:51;94657.19;;;15.37;65.97
67434;BME280;54305;47.950;6.572;2022-10-31T08:25:17;94655.38;;;15.52;69.27
67434;BME280;54305;47.950;6.572;2022-10-31T08:27:42;94646.31;;;15.69;68.92
67434;BME280;54305;47.950;6.572;2022-10-31T08:30:07;94642.84;;;15.83;71.74
67434;BME280;54305;47.950;6.572;2022-10-31T08:32:33;94638.44;;;15.90;70.77
67434;BME280;54305;47.950;6.572;2022-10-31T08:34:58;94642.97;;;15.96;69.48
67434;BME280;54305;47.950;6.572;2022-10-31T08:37:23;94633.34;;;16.03;69.47
67434;BME280;54305;47.950;6.572;2022-10-31T08:39:49;94641.09;;;16.11;66.20
67434;BME280;54305;47.950;6.572;2022-10-31T08:42:14;94630.34;;;16.27;65.98
67434;BME280;54305;47.950;6.572;2022-10-31T08:44:39;94634.28;;;16.37;67.76
67434;BME280;54305;47.950;6.572;2022-10-31T08:47:05;94632.94;;;16.41;69.75
67434;BME280;54305;47.950;6.572;2022-10-31T08:49:30;94633.88;;;16.55;69.54
67434;BME280;54305;47.950;6.572;2022-10-31T08:51:55;94623.84;;;16.65;69.24
67434;BME280;54305;47.950;6.572;2022-10-31T08:54:20;94617.03;;;16.77;68.54
67434;BME280;54305;47.950;6.572;2022-10-31T08:56:46;94623.78;;;16.86;68.25
67434;BME280;54305;47.950;6.572;2022-10-31T08:59:11;94615.13;;;16.92;67.83
67434;BME280;54305;47.950;6.572;2022-10-31T09:01:36;94623.72;;;17.07;67.56
67434;BME280;54305;47.950;6.572;2022-10-31T09:04:01;94606.13;;;17.07;67.03
67434;BME280;54305;47.950;6.572;2022-10-31T09:06:27;94607.53;;;17.10;67.78
67434;BME280;54305;47.950;6.572;2022-10-31T09:08:52;94611.25;;;17.22;67.92
67434;BME280;54305;47.950;6.572;2022-10-31T09:11:17;94602.97;;;17.25;67.48
67434;BME280;54305;47.950;6.572;2022-10-31T09:13:42;94597.94;;;17.30;67.01
67434;BME280;54305;47.950;6.572;2022-10-31T09:16:08;94596.31;;;17.29;67.43
67434;BME280;54305;47.950;6.572;2022-10-31T09:18:33;94609.31;;;17.37;65.51
67434;BME280;54305;47.950;6.572;2022-10-31T09:20:59;94610.69;;;17.26;65.65
67434;BME280;54305;47.950;6.572;2022-10-31T09:23:24;94606.00;;;17.28;65.16
67434;BME280;54305;47.950;6.572;2022-10-31T09:25:50;94600.34;;;17.25;62.66
67434;BME280;54305;47.950;6.572;2022-10-31T09:28:20;94599.97;;;17.28;64.74
67434;BME280;54305;47.950;6.572;2022-10-31T09:30:46;94600.72;;;17.22;66.80
67434;BME280;54305;47.950;6.572;2022-10-31T09:33:12;94591.38;;;17.13;65.28
67434;BME280;54305;47.950;6.572;2022-10-31T09:35:38;94595.00;;;17.12;66.99
67434;BME280;54305;47.950;6.572;2022-10-31T09:38:08;94604.13;;;17.16;67.29
67434;BME280;54305;47.950;6.572;2022-10-31T09:43:02;94592.22;;;17.20;67.00
67434;BME280;54305;47.950;6.572;2022-10-31T09:46:15;94595.84;;;17.19;68.24
67434;BME280;54305;47.950;6.572;2022-10-31T09:48:27;94590.63;;;17.32;67.52
67434;BME280;54305;47.950;6.572;2022-10-31T09:50:55;94594.38;;;17.44;68.39
67434;BME280;54305;47.950;6.572;2022-10-31T09:53:31;94585.53;;;17.58;67.50
67434;BME280;54305;47.950;6.572;2022-10-31T09:55:59;94582.13;;;17.70;67.19
67434;BME280;54305;47.950;6.572;2022-10-31T09:58:25;94578.72;;;17.83;63.44
67434;BME280;54305;47.950;6.572;2022-10-31T10:00:51;94576.88;;;17.90;64.00
67434;BME280;54305;47.950;6.572;2022-10-31T10:03:35;94586.44;;;17.84;64.67
67434;BME280;54305;47.950;6.572;2022-10-31T10:06:36;94590.31;;;17.95;62.50
67434;BME280;54305;47.950;6.572;2022-10-31T10:08:55;94592.53;;;17.98;65.50
67434;BME280;54305;47.950;6.572;2022-10-31T10:11:27;94595.47;;;18.42;62.95
67434;BME280;54305;47.950;6.572;2022-10-31T10:21:59;94575.69;;;19.79;57.56
67434;BME280;54305;47.950;6.572;2022-10-31T10:27:11;94586.28;;;20.48;51.13
67434;BME280;54305;47.950;6.572;2022-10-31T10:29:53;94587.09;;;19.80;52.02
67434;BME280;54305;47.950;6.572;2022-10-31T10:32:24;94599.09;;;18.93;54.56
67434;BME280;54305;47.950;6.572;2022-10-31T10:35:33;94598.91;;;18.75;54.13
67434;BME280;54305;47.950;6.572;2022-10-31T10:37:41;94592.16;;;19.11;55.02
67434;BME280;54305;47.950;6.572;2022-10-31T10:40:11;94582.16;;;19.90;57.68
67434;BME280;54305;47.950;6.572;2022-10-31T10:42:39;94586.50;;;21.20;52.50
67434;BME280;54305;47.950;6.572;2022-10-31T10:45:22;94571.50;;;22.68;45.97
67434;BME280;54305;47.950;6.572;2022-10-31T10:48:10;94582.50;;;24.03;42.95
67434;BME280;54305;47.950;6.572;2022-10-31T10:50:41;94588.81;;;23.74;41.55
67434;BME280;54305;47.950;6.572;2022-10-31T10:55:41;94583.56;;;23.05;43.56
67434;BME280;54305;47.950;6.572;2022-10-31T10:58:08;94577.38;;;22.29;45.49
67434;BME280;54305;47.950;6.572;2022-10-31T11:00:36;94573.72;;;22.30;44.63
67434;BME280;54305;47.950;6.572;2022-10-31T11:03:03;94573.22;;;22.22;47.15
67434;BME280;54305;47.950;6.572;2022-10-31T11:08:07;94552.81;;;23.09;42.81
67434;BME280;54305;47.950;6.572;2022-10-31T11:10:33;94547.59;;;23.88;41.20
67434;BME280;54305;47.950;6.572;2022-10-31T11:13:03;94549.22;;;23.89;42.69
67434;BME280;54305;47.950;6.572;2022-10-31T11:15:30;94555.38;;;23.04;44.88
67434;BME280;54305;47.950;6.572;2022-10-31T11:17:57;94542.16;;;22.11;45.50
67434;BME280;54305;47.950;6.572;2022-10-31T11:20:27;94535.50;;;22.95;44.37
67434;BME280;54305;47.950;6.572;2022-10-31T11:23:10;94524.06;;;23.80;42.27
67434;BME280;54305;47.950;6.572;2022-10-31T11:25:47;94516.63;;;24.38;41.42
67434;BME280;54305;47.950;6.572;2022-10-31T11:28:12;94517.44;;;23.43;42.20
67434;BME280;54305;47.950;6.572;2022-10-31T11:30:45;94519.78;;;22.59;44.50
67434;BME280;54305;47.950;6.572;2022-10-31T11:33:19;94511.25;;;22.80;45.26
67434;BME280;54305;47.950;6.572;2022-10-31T11:35:45;94504.59;;;22.25;47.57
67434;BME280;54305;47.950;6.572;2022-10-31T11:38:14;94503.13;;;21.70;46.67
67434;BME280;54305;47.950;6.572;2022-10-31T11:40:40;94503.75;;;21.18;50.46
67434;BME280;54305;47.950;6.572;2022-10-31T11:43:16;94505.75;;;20.62;50.94
67434;BME280;54305;47.950;6.572;2022-10-31T11:45:42;94505.59;;;20.08;52.83
67434;BME280;54305;47.950;6.572;2022-10-31T11:48:17;94506.66;;;19.63;53.30
67434;BME280;54305;47.950;6.572;2022-10-31T11:50:47;94508.75;;;19.48;55.93
67434;BME280;54305;47.950;6.572;2022-10-31T11:53:14;94498.16;;;19.54;56.04
67434;BME280;54305;47.950;6.572;2022-10-31T11:55:40;94489.25;;;19.49;56.41
67434;BME280;54305;47.950;6.572;2022-10-31T11:58:23;94499.88;;;19.42;58.28
67434;BME280;54305;47.950;6.572;2022-10-31T12:00:53;94480.03;;;19.64;56.70
67434;BME280;54305;47.950;6.572;2022-10-31T12:06:10;94453.38;;;20.46;56.59
67434;BME280;54305;47.950;6.572;2022-10-31T12:08:38;94446.38;;;20.76;55.87
67434;BME280;54305;47.950;6.572;2022-10-31T12:13:34;94435.38;;;20.73;53.95
67434;BME280;54305;47.950;6.572;2022-10-31T12:16:25;94430.97;;;20.91;52.56
67434;BME280;54305;47.950;6.572;2022-10-31T12:18:58;94425.91;;;22.88;50.02
67434;BME280;54305;47.950;6.572;2022-10-31T12:21:47;94409.06;;;24.94;46.20
67434;BME280;54305;47.950;6.572;2022-10-31T12:29:33;94382.25;;;25.96;41.13
67434;BME280;54305;47.950;6.572;2022-10-31T12:37:00;94399.06;;;23.52;44.87
67434;BME280;54305;47.950;6.572;2022-10-31T12:42:01;94397.19;;;24.63;43.18
67434;BME280;54305;47.950;6.572;2022-10-31T12:49:32;94388.00;;;26.46;39.00
67434;BME280;54305;47.950;6.572;2022-10-31T12:52:07;94380.63;;;25.95;40.32
67434;BME280;54305;47.950;6.572;2022-10-31T12:57:21;94384.81;;;21.87;49.69
67434;BME280;54305;47.950;6.572;2022-10-31T13:04:49;94365.53;;;21.80;49.53
67434;BME280;54305;47.950;6.572;2022-10-31T13:07:21;94355.69;;;21.28;51.51
67434;BME280;54305;47.950;6.572;2022-10-31T13:09:56;94375.75;;;21.24;49.79
67434;BME280;54305;47.950;6.572;2022-10-31T13:12:24;94384.00;;;21.57;49.22
67434;BME280;54305;47.950;6.572;2022-10-31T13:14:53;94371.44;;;20.76;50.86
67434;BME280;54305;47.950;6.572;2022-10-31T13:17:37;94385.19;;;20.05;51.57
67434;BME280;54305;47.950;6.572;2022-10-31T13:22:38;94372.72;;;19.32;53.29
67434;BME280;54305;47.950;6.572;2022-10-31T13:27:48;94363.59;;;19.84;53.58
67434;BME280;54305;47.950;6.572;2022-10-31T13:30:16;94363.78;;;19.89;53.95
67434;BME280;54305;47.950;6.572;2022-10-31T13:35:26;94360.25;;;19.46;55.48
67434;BME280;54305;47.950;6.572;2022-10-31T13:40:45;94363.19;;;18.94;59.49
67434;BME280;54305;47.950;6.572;2022-10-31T13:45:59;94362.09;;;19.39;61.53
67434;BME280;54305;47.950;6.572;2022-10-31T13:50:57;94358.34;;;20.27;60.03
67434;BME280;54305;47.950;6.572;2022-10-31T13:53:23;94367.38;;;19.39;63.86
67434;BME280;54305;47.950;6.572;2022-10-31T13:56:19;94365.13;;;19.05;64.76
67434;BME280;54305;47.950;6.572;2022-10-31T13:59:00;94359.06;;;18.60;65.54
67434;BME280;54305;47.950;6.572;2022-10-31T14:01:26;94373.53;;;19.33;64.08
67434;BME280;54305;47.950;6.572;2022-10-31T14:04:15;94365.06;;;19.80;61.55
67434;BME280;54305;47.950;6.572;2022-10-31T14:07:05;94358.03;;;19.92;60.77
67434;BME280;54305;47.950;6.572;2022-10-31T14:09:26;94365.47;;;19.15;63.15
67434;BME280;54305;47.950;6.572;2022-10-31T14:11:53;94354.25;;;19.57;62.24
67434;BME280;54305;47.950;6.572;2022-10-31T14:14:20;94356.19;;;20.89;58.56
67434;BME280;54305;47.950;6.572;2022-10-31T14:16:52;94361.28;;;20.73;58.82
67434;BME280;54305;47.950;6.572;2022-10-31T14:19:18;94362.53;;;19.91;60.77
67434;BME280;54305;47.950;6.572;2022-10-31T14:21:45;94364.25;;;19.24;61.89
67434;BME280;54305;47.950;6.572;2022-10-31T14:24:15;94371.09;;;18.94;63.34
67434;BME280;54305;47.950;6.572;2022-10-31T14:26:55;94373.06;;;18.61;62.93
67434;BME280;54305;47.950;6.572;2022-10-31T14:29:22;94369.19;;;19.07;61.83
67434;BME280;54305;47.950;6.572;2022-10-31T14:34:31;94359.81;;;19.73;60.75
67434;BME280;54305;47.950;6.572;2022-10-31T14:39:31;94359.81;;;19.98;58.86
67434;BME280;54305;47.950;6.572;2022-10-31T14:47:29;94357.00;;;18.69;64.88